Bodega Marine Reserve, California Weather observations

Data are for 10 minute period ending at time listed.
 Day   Time   Solar   Ave.   Ave.  Ave.  Vector  Max.   Baro.   Total    
  of    of     Rad.   Air    Rel.  Wind   Wind   Wind  Press.  Precip.   
Year   Day            Temp.  Hum.  Speed  Dir.   Gust                    
2015   (PST)  Kw/m2    F      %     mph   deg.    mph    mb.     in.     
-------------------------------------------------------------------------
  87    1:10   0.00   52.3    90   19.6   308    27.2   1018.0    0.00 
  87    1:20   0.00   52.3    90   19.6   309    26.9   1018.0    0.00 
  87    1:30   0.00   52.2    90   19.1   308    25.5   1018.0    0.00 
  87    1:40   0.00   52.1    90   16.5   311    23.6   1018.0    0.00 
  87    1:50   0.00   52.1    90   15.5   313    23.5   1018.0    0.00 
  87    2:00   0.00   52.1    90   16.3   314    22.7   1018.0    0.00 
  87    2:10   0.00   52.1    90   14.2   324    21.3   1018.0    0.00 
  87    2:20   0.00   51.9    90   13.6   322    18.5   1018.0    0.00 
  87    2:30   0.00   51.7    91   12.5   316    16.6   1018.0    0.00 
  87    2:40   0.00   51.5    91   12.7   315    16.1   1018.0    0.00 
  87    2:50   0.00   51.4    91   14.1   314    20.0   1017.6    0.00 
  87    3:00   0.00   51.3    91   13.8   316    17.8   1017.6    0.00 
  87    3:10   0.00   51.5    91   16.2   317    20.5   1017.6    0.00 
  87    3:20   0.00   51.8    90   16.0   322    21.0   1017.6    0.00 
  87    3:30   0.00   52.0    89   14.8   318    19.5   1017.6    0.00 
  87    3:40   0.00   51.9    88   13.1   316    18.9   1017.6    0.00 
  87    3:50   0.00   51.8    87    8.7   318    13.7   1017.6    0.00 
  87    4:00   0.00   51.2    88    9.2   321    11.8   1017.6    0.00 
  87    4:10   0.00   51.0    89    9.7   318    12.3   1017.6    0.00 
  87    4:20   0.00   49.9    89    6.2   316     8.2   1017.6    0.00 
  87    4:30   0.00   49.1    90    4.5   327     5.8   1018.0    0.00 
  87    4:40   0.00   48.0    90    3.9   326     6.0   1018.0    0.00 
  87    4:50   0.00   47.2    91    7.3   323    10.4   1018.0    0.00 
  87    5:00   0.00   48.7    90    6.9   318     9.1   1018.0    0.00 
  87    5:10   0.00   49.7    90   10.2   318    15.0   1018.0    0.00 
  87    5:20   0.00   51.2    88   10.7   326    16.1   1018.0    0.00 
  87    5:30   0.00   50.6    88    8.7   324    13.6   1018.3    0.00 
  87    5:40   0.00   50.6    89   10.1   310    13.2   1018.0    0.00 
  87    5:50   0.00   50.3    89   10.7   310    15.6   1018.0    0.00 
  87    6:00   0.00   50.0    89    8.6   310    11.5   1018.3    0.00 
  87    6:10   0.01   49.6    89    7.5   311    10.1   1018.3    0.00 
  87    6:20   0.01   49.2    90    7.4   312     9.8   1018.3    0.01 
  87    6:30   0.03   49.4    89    7.2   310    10.4   1018.6    0.00 
  87    6:40   0.06   49.6    89    7.9   298     9.6   1018.6    0.00 
  87    6:50   0.08   50.2    89    8.0   307    10.9   1018.6    0.00 
  87    7:00   0.12   51.2    88    8.2   314    11.0   1019.0    0.00 
  87    7:10   0.15   51.9    87    6.8   315    10.2   1019.0    0.00 
  87    7:20   0.20   52.8    85    6.2   315     8.7   1019.3    0.00 
  87    7:30   0.21   53.3    83    6.0   308     8.8   1019.3    0.00 
  87    7:40   0.24   53.6    81    5.2   308     7.4   1019.6    0.00 
  87    7:50   0.24   54.0    81    6.0   301     8.3   1019.6    0.00 
  87    8:00   0.29   54.0    81    7.1   305     9.7   1019.6    0.00 
  87    8:10   0.33   54.4    80    6.1   311     8.7   1019.6    0.00 
  87    8:20   0.37   55.1    77    3.4   343     5.6   1020.0    0.00 
  87    8:30   0.41   55.6    76    3.0    98     4.8   1020.0    0.00 
  87    8:40   0.43   56.5    74    2.3   128     4.6   1020.3    0.00 
  87    8:50   0.41   56.8    74    2.6   169     6.2   1020.3    0.00 
  87    9:00   0.47   56.7    72    4.9   274     6.8   1020.3    0.00 
  87    9:10   0.52   57.7    71    4.8   270     8.1   1020.3    0.00 
  87    9:20   0.55   58.0    69    6.3   279     8.7   1020.7    0.00 
  87    9:30   0.58   58.0    65    7.4   302    10.5   1020.7    0.00 
  87    9:40   0.60   57.8    65    9.9   310    13.9   1020.3    0.00 
  87    9:50   0.62   57.7    67   11.4   310    15.2   1020.3    0.00 
  87   10:00   0.65   57.6    67   11.2   308    15.6   1020.7    0.00 
  87   10:10   0.68   58.0    67   11.7   310    16.2   1020.7    0.00 
  87   10:20   0.70   58.0    68   11.5   311    15.0   1020.7    0.00 
  87   10:30   0.72   58.2    67   11.9   312    18.3   1020.7    0.00 
  87   10:40   0.74   59.1    66   14.7   307    19.4   1020.7    0.00 
  87   10:50   0.75   58.3    68   16.6   304    21.3   1020.7    0.00 
  87   11:00   0.77   58.5    69   17.3   304    23.0   1020.3    0.00 
  87   11:10   0.78   58.8    69   15.8   308    22.9   1020.3    0.00 
  87   11:20   0.80   58.5    68   17.4   310    22.5   1020.3    0.00 
  87   11:30   0.81   58.6    67   16.6   309    20.5   1020.0    0.00 
  87   11:40   0.82   58.9    67   16.3   306    21.8   1020.0    0.00 
  87   11:50   0.82   59.2    67   16.3   302    21.5   1020.0    0.00 
  87   12:00   0.83   59.6    67   16.4   306    21.4   1019.6    0.00 
  87   12:10   0.84   59.1    67   16.9   310    21.0   1019.6    0.00 
  87   12:20   0.84   59.2    68   15.9   308    20.7   1019.6    0.00 
  87   12:30   0.84   59.0    68   17.8   312    24.1   1019.3    0.00 
  87   12:40   0.84   58.3    69   19.5   311    23.7   1019.3    0.00 
  87   12:50   0.83   58.7    69   19.3   310    24.2   1019.0    0.00 
  87   13:00   0.82   58.6    70   19.4   311    24.0   1019.0    0.00 
  87   13:10   0.80   58.8    69   19.5   312    25.8   1019.0    0.00 
  87   13:20   0.81   58.9    68   18.8   312    23.9   1018.6    0.00 
  87   13:30   0.80   59.3    67   18.3   312    25.2   1018.6    0.00 
  87   13:40   0.79   59.4    66   19.5   313    24.8   1018.6    0.00 
  87   13:50   0.77   58.7    68   20.3   312    25.0   1018.3    0.00 
  87   14:00   0.76   59.3    67   19.6   313    27.6   1018.3    0.00 
  87   14:10   0.74   59.2    66   21.2   313    26.7   1018.0    0.00 
  87   14:20   0.72   58.9    67   21.3   313    26.8   1018.0    0.00 
  87   14:30   0.70   59.0    68   21.6   312    27.8   1017.6    0.00 
  87   14:40   0.68   58.9    68   21.2   313    27.2   1017.6    0.00 
  87   14:50   0.66   58.9    68   21.5   313    27.0   1017.6    0.00 
  87   15:00   0.63   58.7    68   20.9   312    26.5   1017.6    0.00 
  87   15:10   0.61   58.3    69   21.5   313    26.4   1017.6    0.00 
  87   15:20   0.58   58.4    69   21.5   309    27.8   1017.3    0.00 
  87   15:30   0.55   58.1    70   21.1   312    27.5   1017.3    0.00 
  87   15:40   0.52   57.6    71   21.0   314    28.9   1017.3    0.00 
  87   15:50   0.49   57.5    71   21.2   314    26.5   1017.3    0.00 
  87   16:00   0.46   57.5    70   22.0   312    28.2   1016.9    0.00 
  87   16:10   0.43   57.1    70   22.9   308    29.0   1016.9    0.00 
  87   16:20   0.40   57.1    70   23.5   307    30.2   1016.9    0.00 
  87   16:30   0.21   56.6    71   25.2   303    30.5   1016.6    0.00 
  87   16:40   0.20   56.5    71   24.7   301    30.6   1016.6    0.00 
  87   16:50   0.25   56.4    71   24.0   303    30.9   1016.6    0.00 
  87   17:00   0.27   56.4    71   21.6   308    28.5   1016.6    0.00 
  87   17:10   0.24   56.1    72   20.3   309    27.5   1016.6    0.00 
  87   17:20   0.19   55.7    73   19.3   311    25.6   1016.6    0.00 
  87   17:30   0.13   55.1    75   20.4   309    29.0   1016.6    0.00 
  87   17:40   0.09   54.7    76   20.3   313    28.4   1016.6    0.00 
  87   17:50   0.03   54.3    77   20.7   317    27.6   1016.6    0.00 
  87   18:00   0.02   53.7    78   22.4   316    28.9   1016.3    0.00 
  87   18:10   0.02   53.2    80   20.6   317    26.6   1016.3    0.00 
  87   18:20   0.02   53.0    81   20.0   317    25.7   1016.3    0.00 
  87   18:30   0.01   52.7    82   19.1   317    25.4   1016.3    0.00 
  87   18:40   0.00   52.6    82   19.2   316    27.8   1016.3    0.00 
  87   18:50   0.00   52.3    83   18.9   315    24.7   1016.3    0.00 
  87   19:00   0.00   52.2    83   19.4   317    25.1   1016.3    0.00 
  87   19:10   0.00   52.1    83   18.8   322    24.4   1016.3    0.00 
  87   19:20   0.00   52.2    83   18.5   321    24.0   1016.6    0.00 
  87   19:30   0.00   52.1    84   19.3   321    25.1   1016.6    0.00 
  87   19:40   0.00   52.0    84   19.5   320    26.7   1016.6    0.00 
  87   19:50   0.00   52.1    84   19.5   319    25.4   1016.6    0.00 
  87   20:00   0.00   51.9    84   18.9   319    25.1   1016.6    0.00 
  87   20:10   0.00   51.9    83   20.2   316    26.4   1016.6    0.00 
  87   20:20   0.00   51.9    83   20.1   318    27.3   1016.6    0.00 
  87   20:30   0.00   51.7    83   19.3   319    28.5   1016.6    0.00 
  87   20:40   0.00   51.6    83   19.3   320    23.8   1016.6    0.00 
  87   20:50   0.00   51.6    84   20.4   317    26.0   1016.6    0.00 
  87   21:00   0.00   51.5    84   19.1   314    24.9   1016.6    0.00 
  87   21:10   0.00   51.4    84   17.2   316    23.0   1016.6    0.00 
  87   21:20   0.00   51.2    83   14.1   316    18.6   1016.6    0.00 
  87   21:30   0.00   51.3    83   13.9   316    19.6   1016.9    0.00 
  87   21:40   0.00   51.1    85   16.1   315    21.0   1016.9    0.00 
  87   21:50   0.00   51.0    85   15.8   312    21.4   1016.9    0.00 
  87   22:00   0.00   50.8    86   16.9   311    21.1   1016.9    0.00 
  87   22:10   0.00   50.8    86   17.1   309    22.1   1016.9    0.00 
  87   22:20   0.00   51.0    86   17.3   308    21.1   1016.9    0.00 
  87   22:30   0.00   50.8    86   14.2   313    19.7   1016.9    0.00 
  87   22:40   0.00   50.4    87   11.8   310    16.1   1016.9    0.00 
  87   22:50   0.00   50.1    87   13.0   302    17.4   1016.6    0.00 
  87   23:00   0.00   50.1    88   14.2   304    17.6   1016.6    0.00 
  87   23:10   0.00   50.1    88   14.3   306    18.9   1016.6    0.00 
  87   23:20   0.00   50.2    88   14.4   307    18.3   1016.6    0.00 
  87   23:30   0.00   49.9    89   14.8   304    20.6   1016.6    0.00 
  87   23:40   0.00   50.2    89   17.4   309    22.1   1016.6    0.00 
  87   23:50   0.00   50.2    89   17.2   308    21.5   1016.6    0.00 
  88    0:00   0.00   50.1    89   16.4   307    21.7   1016.6    0.00 
  88    0:10   0.00   50.2    89   17.7   310    22.4   1016.3    0.00 
  88    0:20   0.00   50.3    89   18.1   308    23.5   1016.6    0.00 
  88    0:30   0.00   50.2    88   16.4   309    21.7   1016.6    0.00 
  88    0:40   0.00   50.1    88   17.4   309    22.5   1016.6    0.00 
  88    0:50   0.00   50.3    88   14.9   320    20.4   1016.9    0.00 
  88    1:00   0.00   50.3    88   12.5   326    16.9   1016.9    0.00 

Return to Bodega Marine Reserve graphs page.


Western Regional Climate Center,wrcc@dri.edu